Time;durP1;ratioP1;P1;durP2;ratioP2;P2;SDS_P1;SDS_P2;PMS_P1;PMS_P2;Temp;Humidity;BMP_temperature;BMP_pressure;BME280_temperature;BME280_humidity;BME280_pressure;Samples;Min_cycle;Max_cycle;Signal;HPM_P1;HPM_P2
2023/07/25 00:01:00;;;;;;;4.60;4.20;;;17.10;99.90;;;;;;4991667;28;20187;-67
2023/07/25 00:03:25;;;;;;;4.40;4.10;;;17.10;99.90;;;;;;5002083;28;20198;-67
2023/07/25 00:05:51;;;;;;;4.60;4.20;;;17.10;99.90;;;;;;4992614;28;20184;-67
2023/07/25 00:08:16;;;;;;;7.77;4.50;;;17.10;99.90;;;;;;4992582;28;20262;-67
2023/07/25 00:10:42;;;;;;;4.30;3.90;;;17.10;99.90;;;;;;4999372;28;20203;-67
2023/07/25 00:13:07;;;;;;;5.93;4.40;;;17.10;99.90;;;;;;5002537;28;20566;-67
2023/07/25 00:15:33;;;;;;;4.23;3.93;;;17.10;99.90;;;;;;4997924;28;20622;-67
2023/07/25 00:17:59;;;;;;;4.60;4.20;;;17.10;99.90;;;;;;4990868;28;20715;-67
2023/07/25 00:20:25;;;;;;;3.60;3.30;;;17.10;99.90;;;;;;4990057;28;20192;-67
2023/07/25 00:22:50;;;;;;;5.00;4.47;;;17.10;99.90;;;;;;4994776;28;20447;-67
2023/07/25 00:25:17;;;;;;;4.33;3.93;;;17.00;99.90;;;;;;5000185;28;20215;-67
2023/07/25 00:27:42;;;;;;;6.70;4.17;;;17.10;99.90;;;;;;4991176;28;20274;-67
2023/07/25 00:30:08;;;;;;;4.40;4.00;;;17.10;99.90;;;;;;4996086;28;20546;-67
2023/07/25 00:32:34;;;;;;;4.00;3.70;;;17.10;99.90;;;;;;5003014;28;20183;-67
2023/07/25 00:35:00;;;;;;;4.00;3.53;;;17.10;99.90;;;;;;4989442;28;20541;-67
2023/07/25 00:37:29;;;;;;;4.63;4.00;;;17.10;99.90;;;;;;4984692;28;20549;-67
2023/07/25 00:39:54;;;;;;;4.97;4.50;;;17.10;99.90;;;;;;4998179;28;20434;-67
2023/07/25 00:42:20;;;;;;;4.23;3.93;;;17.10;99.90;;;;;;4999165;28;20579;-67
2023/07/25 00:44:45;;;;;;;6.67;4.30;;;17.10;99.90;;;;;;5002624;28;20329;-67
2023/07/25 00:47:11;;;;;;;4.60;4.10;;;17.10;99.90;;;;;;4990382;28;20831;-67
2023/07/25 00:49:36;;;;;;;3.90;3.60;;;17.10;99.90;;;;;;4997801;28;20266;-67
2023/07/25 00:52:02;;;;;;;4.90;3.77;;;17.10;99.90;;;;;;4998377;28;20180;-67
2023/07/25 00:54:28;;;;;;;4.07;3.73;;;17.00;99.90;;;;;;4992747;28;20207;-67
2023/07/25 00:56:53;;;;;;;5.83;3.60;;;17.00;99.90;;;;;;4988755;28;20463;-67
2023/07/25 00:59:19;;;;;;;4.00;3.53;;;17.00;99.90;;;;;;4997361;28;20191;-67
2023/07/25 01:01:44;;;;;;;5.13;4.30;;;17.00;99.90;;;;;;4990047;28;20211;-67
2023/07/25 01:04:10;;;;;;;3.47;3.17;;;17.00;99.90;;;;;;4990427;28;20684;-68
2023/07/25 01:06:37;;;;;;;4.27;3.80;;;17.00;99.90;;;;;;4997883;28;20207;-68
2023/07/25 01:09:02;;;;;;;4.40;4.00;;;16.90;99.90;;;;;;5005505;28;20185;-68
2023/07/25 01:11:28;;;;;;;3.93;3.57;;;16.90;99.90;;;;;;4993071;28;20434;-68
2023/07/25 01:13:54;;;;;;;4.80;4.20;;;16.80;99.90;;;;;;4991264;28;20242;-68
2023/07/25 01:16:26;;;;;;;5.40;5.00;;;16.80;99.90;;;;;;4999767;28;20237;-68
2023/07/25 01:18:53;;;;;;;5.80;4.33;;;16.70;99.90;;;;;;4999411;28;20444;-68
2023/07/25 01:21:22;;;;;;;3.90;3.60;;;16.60;99.90;;;;;;5011945;28;20523;-68
2023/07/25 01:23:48;;;;;;;4.40;4.00;;;16.50;99.90;;;;;;4998423;28;20482;-68
2023/07/25 01:26:16;;;;;;;5.73;4.30;;;16.50;99.90;;;;;;5008697;28;20430;-68
2023/07/25 01:28:42;;;;;;;4.33;4.03;;;16.50;99.90;;;;;;4994627;28;20255;-68
2023/07/25 01:31:07;;;;;;;3.97;3.60;;;16.60;99.90;;;;;;4995716;28;20521;-68
2023/07/25 01:33:33;;;;;;;5.07;4.67;;;16.60;99.90;;;;;;4994237;28;20203;-68
2023/07/25 01:36:00;;;;;;;4.83;4.43;;;16.50;99.90;;;;;;4994568;28;20654;-68
2023/07/25 01:38:25;;;;;;;3.67;3.27;;;16.60;99.90;;;;;;5010469;28;20186;-68
2023/07/25 01:40:51;;;;;;;5.20;3.60;;;16.60;99.90;;;;;;5002422;28;20450;-67
2023/07/25 01:43:16;;;;;;;4.20;3.80;;;16.60;99.90;;;;;;4994247;28;20207;-67
2023/07/25 01:45:42;;;;;;;5.20;4.03;;;16.60;99.90;;;;;;4993532;28;20176;-68
2023/07/25 01:48:07;;;;;;;5.23;3.80;;;16.70;99.90;;;;;;4997808;28;20179;-68
2023/07/25 01:50:33;;;;;;;4.13;3.83;;;16.60;99.90;;;;;;5005793;28;20671;-68
2023/07/25 01:52:58;;;;;;;4.40;4.00;;;16.70;99.90;;;;;;4995715;28;20194;-68
2023/07/25 01:55:24;;;;;;;4.00;3.67;;;16.70;99.90;;;;;;4993834;28;20186;-68
2023/07/25 01:57:49;;;;;;;5.13;4.13;;;16.60;99.90;;;;;;5007491;28;20187;-68
2023/07/25 02:00:15;;;;;;;3.80;3.50;;;16.60;99.90;;;;;;4994201;28;20222;-68
2023/07/25 02:02:40;;;;;;;7.80;4.40;;;16.50;99.90;;;;;;4992102;28;20263;-68
2023/07/25 02:05:06;;;;;;;4.27;3.87;;;16.40;99.90;;;;;;4992295;28;20207;-68
2023/07/25 02:07:32;;;;;;;4.40;3.77;;;16.30;99.90;;;;;;4999650;28;20202;-68
2023/07/25 02:09:58;;;;;;;5.37;4.30;;;16.30;99.90;;;;;;5003291;28;20438;-68
2023/07/25 02:12:25;;;;;;;5.13;4.63;;;16.30;99.90;;;;;;5003598;28;20229;-68
2023/07/25 02:14:51;;;;;;;4.70;4.00;;;16.30;99.90;;;;;;4993171;28;20219;-68
2023/07/25 02:17:19;;;;;;;9.50;5.57;;;16.30;99.90;;;;;;4999114;28;20438;-68
2023/07/25 02:19:45;;;;;;;6.73;5.03;;;16.30;99.90;;;;;;4999743;28;20176;-68
2023/07/25 02:22:10;;;;;;;4.60;4.13;;;16.40;99.90;;;;;;5003716;28;20541;-68
2023/07/25 02:24:35;;;;;;;6.00;3.97;;;16.30;99.90;;;;;;4991389;28;20704;-68
2023/07/25 02:27:01;;;;;;;9.20;4.27;;;16.30;99.90;;;;;;4994427;28;20180;-68
2023/07/25 02:29:27;;;;;;;4.40;4.00;;;16.30;99.90;;;;;;4999515;28;20183;-68
2023/07/25 02:31:52;;;;;;;7.00;5.63;;;16.40;99.90;;;;;;5000425;28;20175;-68
2023/07/25 02:34:18;;;;;;;4.27;3.73;;;16.40;99.90;;;;;;4992228;28;20230;-68
2023/07/25 02:36:43;;;;;;;4.77;3.80;;;16.30;99.90;;;;;;5000987;28;20710;-68
2023/07/25 02:39:09;;;;;;;4.17;3.77;;;16.30;99.90;;;;;;4994547;28;20217;-68
2023/07/25 02:41:35;;;;;;;4.27;3.87;;;16.30;99.90;;;;;;4994925;28;20561;-68
2023/07/25 02:44:01;;;;;;;6.60;3.90;;;16.30;99.90;;;;;;4994292;28;20233;-68
2023/07/25 02:46:26;;;;;;;3.83;3.53;;;16.30;99.90;;;;;;4996650;28;20441;-68
2023/07/25 02:48:52;;;;;;;4.90;4.40;;;16.20;99.90;;;;;;4996168;28;20643;-68
2023/07/25 02:51:17;;;;;;;4.10;3.70;;;16.20;99.90;;;;;;5004846;28;20187;-68
2023/07/25 02:53:43;;;;;;;4.60;3.80;;;16.10;99.90;;;;;;4996018;28;20321;-68
2023/07/25 02:56:09;;;;;;;4.30;3.90;;;16.00;99.90;;;;;;4992634;28;20550;-68
2023/07/25 02:58:34;;;;;;;4.57;4.17;;;16.00;99.90;;;;;;4994270;28;20242;-68
2023/07/25 03:01:00;;;;;;;4.70;4.30;;;16.00;99.90;;;;;;4993846;28;20592;-68
2023/07/25 03:03:25;;;;;;;4.40;3.97;;;16.10;99.90;;;;;;4998006;28;20206;-68
2023/07/25 03:05:51;;;;;;;4.27;3.60;;;16.20;99.90;;;;;;4996878;28;20184;-68
2023/07/25 03:08:17;;;;;;;5.40;4.30;;;16.30;99.90;;;;;;5002724;28;20176;-68
2023/07/25 03:10:42;;;;;;;5.33;4.30;;;16.30;99.90;;;;;;4992538;28;20649;-68
2023/07/25 03:13:08;;;;;;;4.57;4.27;;;16.40;99.90;;;;;;4993218;28;20298;-68
2023/07/25 03:15:34;;;;;;;4.37;3.97;;;16.40;99.90;;;;;;4991708;28;20176;-68
2023/07/25 03:17:59;;;;;;;5.73;4.43;;;16.50;99.90;;;;;;4995387;28;20194;-68
2023/07/25 03:20:25;;;;;;;4.13;3.73;;;16.60;99.90;;;;;;4996714;28;20175;-68
2023/07/25 03:22:50;;;;;;;5.43;4.30;;;16.60;99.90;;;;;;4995764;28;20311;-68
2023/07/25 03:25:16;;;;;;;4.70;4.30;;;16.50;99.90;;;;;;4990440;28;20246;-68
2023/07/25 03:27:41;;;;;;;5.00;4.33;;;16.50;99.90;;;;;;4991622;28;20176;-68
2023/07/25 03:30:07;;;;;;;5.27;4.53;;;16.50;99.90;;;;;;4996898;28;20176;-68
2023/07/25 03:32:33;;;;;;;5.33;4.93;;;16.40;99.90;;;;;;5000314;28;20183;-68
2023/07/25 03:34:58;;;;;;;6.33;4.67;;;16.40;99.90;;;;;;4989187;28;20235;-68
2023/07/25 03:37:24;;;;;;;5.67;4.70;;;16.40;99.90;;;;;;5002047;28;20179;-68
2023/07/25 03:39:49;;;;;;;4.40;4.00;;;16.40;99.90;;;;;;4989172;28;20203;-68
2023/07/25 03:42:15;;;;;;;4.73;4.33;;;16.50;99.90;;;;;;5002817;28;20194;-68
2023/07/25 03:44:40;;;;;;;4.83;4.43;;;16.50;99.90;;;;;;4989753;28;20787;-68
2023/07/25 03:47:06;;;;;;;8.23;5.57;;;16.50;99.90;;;;;;4989317;28;20176;-68
2023/07/25 03:49:31;;;;;;;4.70;4.30;;;16.60;99.90;;;;;;5003539;28;20179;-68
2023/07/25 03:51:57;;;;;;;4.50;4.10;;;16.60;99.90;;;;;;4994969;28;20180;-68
2023/07/25 03:54:23;;;;;;;4.57;4.17;;;16.70;99.90;;;;;;4989913;28;20207;-68
2023/07/25 03:56:50;;;;;;;4.70;4.30;;;16.70;99.90;;;;;;4991722;28;20175;-68
2023/07/25 03:59:17;;;;;;;5.80;5.23;;;16.70;99.90;;;;;;4999276;28;20524;-68
2023/07/25 04:01:42;;;;;;;4.53;4.13;;;16.70;99.90;;;;;;5000685;28;20450;-68
2023/07/25 04:04:08;;;;;;;4.33;3.90;;;16.70;99.90;;;;;;4991922;28;20884;-68
2023/07/25 04:06:33;;;;;;;5.93;5.07;;;16.70;99.90;;;;;;4988040;28;20188;-68
2023/07/25 04:08:59;;;;;;;5.13;4.73;;;16.70;99.90;;;;;;4990955;28;20192;-68
2023/07/25 04:11:24;;;;;;;4.30;4.00;;;16.80;99.90;;;;;;4990355;28;20171;-68
2023/07/25 04:13:50;;;;;;;6.80;4.67;;;16.80;99.90;;;;;;4987011;28;20600;-68
2023/07/25 04:16:15;;;;;;;4.97;4.50;;;16.80;99.90;;;;;;4991364;28;20582;-68
2023/07/25 04:18:41;;;;;;;4.50;4.10;;;16.70;99.90;;;;;;4990293;28;20665;-67
2023/07/25 04:21:07;;;;;;;5.50;5.00;;;16.70;99.90;;;;;;4990578;28;20180;-68
2023/07/25 04:23:32;;;;;;;4.63;4.23;;;16.70;99.90;;;;;;4993903;28;20199;-68
2023/07/25 04:25:58;;;;;;;6.20;5.00;;;16.70;99.90;;;;;;4993211;28;20182;-68
2023/07/25 04:28:23;;;;;;;4.63;4.07;;;16.60;99.90;;;;;;4992037;28;20188;-68
2023/07/25 04:30:49;;;;;;;4.70;4.30;;;16.80;99.90;;;;;;4993901;28;20206;-68
2023/07/25 04:33:14;;;;;;;5.80;5.30;;;16.80;99.90;;;;;;4992604;28;20200;-68
2023/07/25 04:35:42;;;;;;;8.50;4.40;;;16.90;99.90;;;;;;4989606;28;20190;-68
2023/07/25 04:38:07;;;;;;;4.97;3.67;;;16.90;99.90;;;;;;4991889;28;20179;-68
2023/07/25 04:40:33;;;;;;;5.63;5.07;;;16.80;99.90;;;;;;4997883;28;20446;-68
2023/07/25 04:42:58;;;;;;;5.00;4.60;;;16.80;99.90;;;;;;4989831;28;20187;-68
2023/07/25 04:45:24;;;;;;;4.70;4.30;;;16.80;99.90;;;;;;4991056;28;20791;-68
2023/07/25 04:47:49;;;;;;;5.73;5.23;;;16.70;99.90;;;;;;4992470;28;20645;-68
2023/07/25 04:50:15;;;;;;;6.47;4.80;;;16.80;99.90;;;;;;4997695;28;20177;-68
2023/07/25 04:52:40;;;;;;;5.30;4.83;;;17.00;99.90;;;;;;4996849;28;20247;-67
2023/07/25 04:55:06;;;;;;;5.13;4.63;;;17.00;99.90;;;;;;5000525;28;20183;-68
2023/07/25 04:57:33;;;;;;;4.60;4.20;;;17.00;99.90;;;;;;5000742;28;20215;-68
2023/07/25 04:59:59;;;;;;;5.20;4.70;;;17.00;99.90;;;;;;4998504;28;20800;-68
2023/07/25 05:02:24;;;;;;;4.23;3.93;;;17.00;99.90;;;;;;4996453;28;20442;-68
2023/07/25 05:04:50;;;;;;;4.93;4.37;;;17.00;99.90;;;;;;5003526;28;20227;-68
2023/07/25 05:07:16;;;;;;;5.20;4.70;;;17.00;99.90;;;;;;4993829;28;20219;-68
2023/07/25 05:09:41;;;;;;;6.13;4.87;;;17.00;99.90;;;;;;4993404;28;20184;-68
2023/07/25 05:12:11;;;;;;;5.40;5.00;;;17.10;99.90;;;;;;5002104;28;20444;-68
2023/07/25 05:14:37;;;;;;;6.50;5.77;;;17.10;99.90;;;;;;4993675;28;20215;-68
2023/07/25 05:17:02;;;;;;;6.73;5.20;;;17.10;99.90;;;;;;4999125;28;21941;-68
2023/07/25 05:19:28;;;;;;;6.13;5.10;;;17.10;99.90;;;;;;4994314;28;20218;-68
2023/07/25 05:21:53;;;;;;;7.97;5.40;;;17.10;99.90;;;;;;4995091;28;20211;-69
2023/07/25 05:24:19;;;;;;;5.53;4.90;;;17.10;99.90;;;;;;4997504;28;20682;-70
2023/07/25 05:26:44;;;;;;;5.47;5.07;;;17.10;99.90;;;;;;5001291;28;20180;-69
2023/07/25 05:29:10;;;;;;;5.90;4.80;;;17.10;99.90;;;;;;5009934;28;20547;-70
2023/07/25 05:31:35;;;;;;;4.50;4.10;;;17.20;99.90;;;;;;4993736;28;20180;-70
2023/07/25 05:34:01;;;;;;;4.43;4.03;;;17.30;99.90;;;;;;4994139;28;20207;-69
2023/07/25 05:36:26;;;;;;;4.30;3.93;;;17.10;99.90;;;;;;4999917;28;20179;-69
2023/07/25 05:38:52;;;;;;;5.23;4.23;;;17.10;99.90;;;;;;4996766;28;20242;-69
2023/07/25 05:41:18;;;;;;;5.17;4.70;;;17.10;99.90;;;;;;4994891;28;20188;-69
2023/07/25 05:43:43;;;;;;;8.40;4.23;;;17.10;99.90;;;;;;4994397;28;20211;-70
2023/07/25 05:46:09;;;;;;;5.17;4.67;;;17.20;99.90;;;;;;5004730;28;20437;-71
2023/07/25 05:48:35;;;;;;;4.90;4.50;;;17.30;99.90;;;;;;5001879;28;20183;-70
2023/07/25 05:51:00;;;;;;;5.40;4.90;;;17.30;99.90;;;;;;4991920;28;20187;-69
2023/07/25 05:53:26;;;;;;;5.03;4.60;;;17.40;99.90;;;;;;4991851;28;20571;-72
2023/07/25 05:55:51;;;;;;;10.37;5.60;;;17.30;99.90;;;;;;4992809;28;20612;-69
2023/07/25 05:58:17;;;;;;;8.13;5.10;;;17.10;99.90;;;;;;4990319;28;20190;-70
2023/07/25 06:00:44;;;;;;;10.80;5.60;;;17.00;99.90;;;;;;5000002;28;20190;-70
2023/07/25 06:03:12;;;;;;;7.17;5.63;;;16.90;99.90;;;;;;5010904;28;20478;-70
2023/07/25 06:05:38;;;;;;;6.33;5.73;;;16.90;99.90;;;;;;4995080;28;20472;-70
2023/07/25 06:08:04;;;;;;;6.67;5.70;;;16.90;99.90;;;;;;4994113;28;20430;-70
2023/07/25 06:10:30;;;;;;;6.13;5.63;;;16.80;99.90;;;;;;5002761;28;20431;-70
2023/07/25 06:12:55;;;;;;;6.17;5.30;;;16.80;99.90;;;;;;5011607;28;20171;-70
2023/07/25 06:15:21;;;;;;;7.63;6.30;;;16.80;99.90;;;;;;5014651;28;20306;-70
2023/07/25 06:17:46;;;;;;;6.40;5.80;;;16.80;99.90;;;;;;5010826;28;20187;-69
2023/07/25 06:20:12;;;;;;;6.60;5.83;;;16.90;99.90;;;;;;5005392;28;20541;-70
2023/07/25 06:22:38;;;;;;;7.83;6.33;;;17.00;99.90;;;;;;5014438;28;20186;-70
2023/07/25 06:25:05;;;;;;;5.27;4.87;;;17.00;99.90;;;;;;5014214;28;20458;-70
2023/07/25 06:27:31;;;;;;;8.03;6.50;;;17.00;99.90;;;;;;5014078;28;20217;-70
2023/07/25 06:29:56;;;;;;;7.20;5.30;;;17.00;99.90;;;;;;5015002;28;20535;-70
2023/07/25 06:32:22;;;;;;;6.50;5.50;;;17.00;99.90;;;;;;5014252;28;20189;-70
2023/07/25 06:34:48;;;;;;;7.13;5.73;;;17.00;99.90;;;;;;5014152;28;20564;-70
2023/07/25 06:37:13;;;;;;;5.93;5.33;;;17.00;99.90;;;;;;5014214;28;20413;-70
2023/07/25 06:39:39;;;;;;;6.87;6.10;;;17.00;99.90;;;;;;5004648;28;20530;-70
2023/07/25 06:42:06;;;;;;;9.23;6.60;;;17.10;99.90;;;;;;5012601;28;20174;-70
2023/07/25 06:44:31;;;;;;;6.93;6.23;;;17.30;99.90;;;;;;5013827;28;20576;-70
2023/07/25 06:46:57;;;;;;;8.40;6.53;;;17.20;99.90;;;;;;5014028;28;20416;-70
2023/07/25 06:49:22;;;;;;;6.10;5.50;;;17.20;99.90;;;;;;5013773;28;20590;-70
2023/07/25 06:51:48;;;;;;;10.30;5.87;;;17.10;99.90;;;;;;5005486;28;20199;-70
2023/07/25 06:54:14;;;;;;;7.67;5.90;;;17.10;99.90;;;;;;5005407;28;20613;-70
2023/07/25 06:56:39;;;;;;;10.03;9.13;;;17.10;99.90;;;;;;5013804;28;20429;-69
2023/07/25 06:59:05;;;;;;;6.73;6.03;;;17.10;99.90;;;;;;5013503;28;20179;-70
2023/07/25 07:01:31;;;;;;;6.90;6.30;;;17.00;99.90;;;;;;5005689;28;20262;-70
2023/07/25 07:03:56;;;;;;;6.53;5.93;;;17.10;99.90;;;;;;5005355;28;20238;-70
2023/07/25 07:06:22;;;;;;;8.50;6.17;;;17.00;99.90;;;;;;5013654;28;20210;-69
2023/07/25 07:08:48;;;;;;;6.43;5.80;;;17.10;99.90;;;;;;5013150;28;20164;-69
2023/07/25 07:11:13;;;;;;;7.60;6.90;;;17.10;99.90;;;;;;5006692;28;20175;-69
2023/07/25 07:13:39;;;;;;;7.73;7.03;;;17.10;99.90;;;;;;5003533;28;20298;-70
2023/07/25 07:16:04;;;;;;;10.27;8.00;;;16.90;99.90;;;;;;5005223;28;20190;-69
2023/07/25 07:18:30;;;;;;;8.93;8.03;;;17.00;99.90;;;;;;5013083;28;20178;-69
2023/07/25 07:20:55;;;;;;;7.80;6.43;;;17.10;99.90;;;;;;5013357;28;20182;-69
2023/07/25 07:23:21;;;;;;;6.83;6.07;;;17.10;99.90;;;;;;5004454;28;20195;-69
2023/07/25 07:25:46;;;;;;;7.30;6.53;;;17.20;99.90;;;;;;5005021;28;20565;-69
2023/07/25 07:28:13;;;;;;;7.50;5.93;;;17.30;99.90;;;;;;5013243;28;20182;-69
2023/07/25 07:30:38;;;;;;;10.67;6.70;;;17.20;99.90;;;;;;5013166;28;20233;-69
2023/07/25 07:33:04;;;;;;;7.00;6.30;;;17.20;99.90;;;;;;5013028;28;21008;-69
2023/07/25 07:35:30;;;;;;;6.13;5.30;;;17.30;99.90;;;;;;5000295;28;20180;-69
2023/07/25 07:37:55;;;;;;;5.93;5.07;;;17.30;99.90;;;;;;5001779;28;20183;-70
2023/07/25 07:40:21;;;;;;;5.07;4.63;;;17.40;99.90;;;;;;5005397;28;20198;-69
2023/07/25 07:42:46;;;;;;;5.50;4.87;;;17.40;99.90;;;;;;5012817;28;20683;-69
2023/07/25 07:45:12;;;;;;;4.83;4.43;;;17.60;99.90;;;;;;5005780;28;20212;-70
2023/07/25 07:47:37;;;;;;;5.40;4.53;;;18.10;99.90;;;;;;5004717;28;20213;-70
2023/07/25 07:50:03;;;;;;;5.50;4.23;;;18.80;99.90;;;;;;5012599;28;20213;-70
2023/07/25 07:52:28;;;;;;;3.83;3.27;;;19.50;99.90;;;;;;5012633;28;20186;-70
2023/07/25 07:54:55;;;;;;;4.40;3.57;;;19.80;99.90;;;;;;5012694;28;20695;-70
2023/07/25 07:57:20;;;;;;;5.03;3.93;;;19.80;99.90;;;;;;5005308;28;20179;-70
2023/07/25 07:59:46;;;;;;;3.83;2.80;;;19.30;99.90;;;;;;5004429;28;20425;-69
2023/07/25 08:02:11;;;;;;;3.23;2.90;;;19.20;99.90;;;;;;5007166;28;20193;-70
2023/07/25 08:04:37;;;;;;;4.90;3.50;;;19.10;99.90;;;;;;5000942;28;20237;-70
2023/07/25 08:07:03;;;;;;;4.30;3.90;;;18.90;99.90;;;;;;5010546;28;20171;-70
2023/07/25 08:09:28;;;;;;;3.70;3.40;;;19.00;99.90;;;;;;5002433;28;20182;-69
2023/07/25 08:11:54;;;;;;;4.00;3.53;;;19.00;99.90;;;;;;5002397;28;20187;-70
2023/07/25 08:14:19;;;;;;;3.80;3.50;;;19.10;99.90;;;;;;5012353;28;20218;-70
2023/07/25 08:16:45;;;;;;;7.23;3.87;;;19.50;99.90;;;;;;5012459;28;20258;-70
2023/07/25 08:19:10;;;;;;;3.80;3.27;;;20.00;99.90;;;;;;5012262;28;20167;-70
2023/07/25 08:21:36;;;;;;;5.53;4.90;;;20.30;99.90;;;;;;5002972;28;20689;-70
2023/07/25 08:24:01;;;;;;;3.87;3.50;;;20.30;99.90;;;;;;5009865;28;20680;-70
2023/07/25 08:26:27;;;;;;;8.27;7.63;;;20.20;99.90;;;;;;5012103;28;20213;-70
2023/07/25 08:28:52;;;;;;;4.20;3.77;;;20.30;99.90;;;;;;5011965;28;20186;-70
2023/07/25 08:31:18;;;;;;;4.07;3.67;;;20.30;99.90;;;;;;5012340;28;20554;-70
2023/07/25 08:33:44;;;;;;;3.73;3.43;;;20.20;99.90;;;;;;4999548;28;20744;-70
2023/07/25 08:36:10;;;;;;;3.83;3.53;;;20.20;99.90;;;;;;5011291;28;20220;-70
2023/07/25 08:38:36;;;;;;;4.90;4.50;;;20.10;99.90;;;;;;5012129;28;20429;-70
2023/07/25 08:41:18;;;;;;;4.70;3.70;;;20.00;99.90;;;;;;5012190;28;20425;-70
2023/07/25 08:43:44;;;;;;;3.70;3.40;;;19.80;99.90;;;;;;5004415;28;20209;-70
2023/07/25 08:46:12;;;;;;;4.17;3.77;;;20.10;99.90;;;;;;5000847;28;20927;-70
2023/07/25 08:48:40;;;;;;;5.23;3.90;;;20.40;99.90;;;;;;5006484;28;20175;-70
2023/07/25 08:51:09;;;;;;;3.87;3.57;;;20.60;99.90;;;;;;5012098;28;20418;-69
2023/07/25 08:53:41;;;;;;;5.67;5.17;;;20.70;99.90;;;;;;5009409;28;20595;-70
2023/07/25 08:56:07;;;;;;;4.10;3.80;;;20.50;99.90;;;;;;5002805;28;20848;-70
2023/07/25 08:58:34;;;;;;;4.20;2.80;;;20.20;99.90;;;;;;5011806;28;20430;-69
2023/07/25 09:01:00;;;;;;;4.53;4.13;;;19.80;99.90;;;;;;5011972;28;20262;-70
2023/07/25 09:03:26;;;;;;;5.40;4.00;;;19.20;99.90;;;;;;5011827;28;20561;-70
2023/07/25 09:05:52;;;;;;;3.67;3.30;;;18.70;99.90;;;;;;5008262;28;20211;-70
2023/07/25 09:08:17;;;;;;;5.03;4.53;;;18.50;99.90;;;;;;5002890;28;20445;-70
2023/07/25 09:10:45;;;;;;;3.77;3.50;;;18.20;99.90;;;;;;5003685;28;20527;-70
2023/07/25 09:13:10;;;;;;;5.23;3.30;;;17.90;99.90;;;;;;5011676;28;20758;-70
2023/07/25 09:15:36;;;;;;;6.87;4.40;;;17.80;99.90;;;;;;5011896;28;20421;-70
2023/07/25 09:18:01;;;;;;;3.40;3.20;;;17.80;99.90;;;;;;5011913;28;20652;-70
2023/07/25 09:20:27;;;;;;;3.53;3.23;;;17.80;99.90;;;;;;5009256;28;20194;-70
2023/07/25 09:22:52;;;;;;;3.63;3.33;;;17.90;99.90;;;;;;5003481;28;20298;-70
2023/07/25 09:25:18;;;;;;;3.77;3.07;;;18.20;99.90;;;;;;5011887;28;20277;-70
2023/07/25 09:27:48;;;;;;;3.43;2.90;;;18.80;99.90;;;;;;5011730;28;20183;-70
2023/07/25 09:30:14;;;;;;;3.60;3.30;;;19.10;99.90;;;;;;5011455;28;20250;-70
2023/07/25 09:32:46;;;;;;;5.00;2.60;;;19.10;99.90;;;;;;5011712;28;20934;-70
2023/07/25 09:35:11;;;;;;;4.10;2.80;;;19.20;99.90;;;;;;5005290;28;20967;-71
2023/07/25 09:37:37;;;;;;;4.67;3.20;;;19.50;99.90;;;;;;5009581;28;20480;-71
2023/07/25 09:40:08;;;;;;;3.00;2.60;;;19.80;99.90;;;;;;5015075;28;20511;-71
2023/07/25 09:42:39;;;;;;;4.53;2.47;;;20.30;99.90;;;;;;5015261;28;20167;-71
2023/07/25 09:45:11;;;;;;;3.10;2.60;;;20.90;99.90;;;;;;5014948;28;20823;-71
2023/07/25 09:47:38;;;;;;;3.03;2.73;;;21.60;99.90;;;;;;5005818;28;20443;-70
2023/07/25 09:50:05;;;;;;;2.93;2.40;;;21.90;99.90;;;;;;5006744;28;20797;-70
2023/07/25 09:52:39;;;;;;;5.33;3.37;;;21.80;99.90;;;;;;5015080;28;20428;-71
2023/07/25 09:55:05;;;;;;;3.63;2.40;;;22.50;99.90;;;;;;5014962;28;20525;-70
2023/07/25 09:57:31;;;;;;;3.23;2.33;;;22.80;99.90;;;;;;5014890;28;20425;-71
2023/07/25 09:59:58;;;;;;;2.73;2.03;;;23.00;99.90;;;;;;5012490;28;20919;-71
2023/07/25 10:02:25;;;;;;;3.60;2.70;;;22.60;99.90;;;;;;5006662;28;20491;-71
2023/07/25 10:04:52;;;;;;;2.40;2.20;;;23.00;99.90;;;;;;5014747;28;20908;-71
2023/07/25 10:07:18;;;;;;;3.00;2.70;;;23.50;99.90;;;;;;5014768;28;20440;-71
2023/07/25 10:09:47;;;;;;;2.50;2.17;;;23.50;99.90;;;;;;5014488;28;21018;-71
2023/07/25 10:12:13;;;;;;;7.93;2.50;;;23.20;99.90;;;;;;5014587;28;20251;-70
2023/07/25 10:14:38;;;;;;;2.20;2.10;;;23.10;99.90;;;;;;5011275;28;20505;-71
2023/07/25 10:17:08;;;;;;;2.00;1.90;;;23.30;99.90;;;;;;5006320;28;20179;-71
2023/07/25 10:19:54;;;;;;;3.70;2.40;;;23.40;99.90;;;;;;5014257;28;20249;-71
2023/07/25 10:22:40;;;;;;;2.73;2.17;;;23.60;99.90;;;;;;5014457;28;20846;-71
2023/07/25 10:25:11;;;;;;;2.20;2.00;;;24.00;99.90;;;;;;5014380;28;20465;-71
2023/07/25 10:27:37;;;;;;;4.80;2.20;;;24.40;99.90;;;;;;5000556;28;20442;-71
2023/07/25 10:30:19;;;;;;;2.47;1.50;;;24.90;99.90;;;;;;4994446;28;20442;-71
2023/07/25 10:32:46;;;;;;;3.43;2.20;;;25.20;99.90;;;;;;5005511;28;20186;-71
2023/07/25 10:35:11;;;;;;;2.43;2.20;;;25.40;99.90;;;;;;5005929;28;20465;-71
2023/07/25 10:37:44;;;;;;;2.33;1.93;;;25.00;99.90;;;;;;5014173;28;20430;-70
2023/07/25 10:40:22;;;;;;;2.67;2.47;;;24.30;99.90;;;;;;5014005;28;20276;-70
2023/07/25 10:42:50;;;;;;;2.57;2.33;;;23.90;99.90;;;;;;4998619;28;20928;-70
2023/07/25 10:45:28;;;;;;;2.07;1.80;;;23.00;99.90;;;;;;5013825;28;20548;-70
2023/07/25 10:47:54;;;;;;;2.43;2.00;;;22.50;99.90;;;;;;5013305;28;20447;-70
2023/07/25 10:50:49;;;;;;;4.10;2.53;;;22.00;99.90;;;;;;5013559;28;20426;-69
2023/07/25 10:53:16;;;;;;;4.57;2.83;;;21.30;99.90;;;;;;5013753;28;20448;-69
2023/07/25 10:56:03;;;;;;;2.47;2.27;;;20.50;99.90;;;;;;5004194;28;21030;-69
2023/07/25 10:58:30;;;;;;;2.73;2.33;;;19.70;99.90;;;;;;5000771;28;20428;-70
2023/07/25 11:00:57;;;;;;;2.70;2.50;;;19.20;99.90;;;;;;5003762;28;20876;-70
2023/07/25 11:03:31;;;;;;;2.63;2.43;;;18.90;99.90;;;;;;5013563;28;20503;-70
2023/07/25 11:06:22;;;;;;;3.83;2.90;;;18.80;99.90;;;;;;5013566;28;20473;-70
2023/07/25 11:08:48;;;;;;;2.83;2.63;;;18.90;99.90;;;;;;4997554;28;20484;-70
2023/07/25 11:11:14;;;;;;;2.90;2.57;;;19.50;99.90;;;;;;5004080;28;20430;-70
2023/07/25 11:13:41;;;;;;;2.57;2.37;;;21.00;99.90;;;;;;5008753;28;20230;-70
2023/07/25 11:16:08;;;;;;;3.03;2.07;;;22.30;99.90;;;;;;5013440;28;20175;-70
2023/07/25 11:18:37;;;;;;;2.70;2.23;;;24.30;99.90;;;;;;5013017;28;20426;-70
2023/07/25 11:21:07;;;;;;;2.63;1.83;;;26.00;99.90;;;;;;5013287;28;20422;-70
2023/07/25 11:23:33;;;;;;;4.50;1.67;;;27.10;99.90;;;;;;5008795;28;20546;-71
2023/07/25 11:26:02;;;;;;;1.87;1.77;;;27.60;99.90;;;;;;5002605;28;20501;-71
2023/07/25 11:28:27;;;;;;;3.67;1.77;;;27.40;99.90;;;;;;5012935;28;20425;-71
2023/07/25 11:30:53;;;;;;;2.00;1.70;;;28.20;99.90;;;;;;5013202;28;20931;-71
2023/07/25 11:33:19;;;;;;;1.90;1.60;;;29.00;94.10;;;;;;5012988;28;20194;-71
2023/07/25 11:35:51;;;;;;;2.03;1.83;;;28.70;95.70;;;;;;5013095;28;20171;-71
2023/07/25 11:38:16;;;;;;;2.20;1.87;;;28.40;96.10;;;;;;5008016;28;20444;-70
2023/07/25 11:40:42;;;;;;;2.40;2.00;;;27.60;97.70;;;;;;5004803;28;20433;-70
2023/07/25 11:43:12;;;;;;;1.80;1.70;;;26.30;99.70;;;;;;5012953;28;20587;-70
2023/07/25 11:45:38;;;;;;;2.00;1.90;;;25.00;99.90;;;;;;5012900;28;20680;-70
2023/07/25 11:48:07;;;;;;;2.77;2.57;;;24.70;99.90;;;;;;5012830;28;20429;-70
2023/07/25 11:50:34;;;;;;;1.87;1.73;;;25.40;99.90;;;;;;5012637;28;20414;-70
2023/07/25 11:53:00;;;;;;;1.80;1.70;;;26.20;99.90;;;;;;5006362;28;20944;-70
2023/07/25 11:55:27;;;;;;;1.77;1.67;;;26.40;99.90;;;;;;5005866;28;20795;-70
2023/07/25 11:57:52;;;;;;;4.90;2.20;;;27.40;99.90;;;;;;5012856;28;20452;-70
2023/07/25 12:00:19;;;;;;;1.50;1.40;;;27.30;97.40;;;;;;5012211;28;20426;-71
2023/07/25 12:02:46;;;;;;;1.67;1.57;;;27.00;96.70;;;;;;5012510;28;20237;-70
2023/07/25 12:05:28;;;;;;;1.87;1.77;;;26.90;99.40;;;;;;5006041;28;20543;-71
2023/07/25 12:08:02;;;;;;;2.60;1.67;;;26.10;98.40;;;;;;5009361;28;20526;-71
2023/07/25 12:10:36;;;;;;;4.23;2.10;;;25.40;98.10;;;;;;5012364;28;20452;-70
2023/07/25 12:13:03;;;;;;;2.30;1.40;;;24.60;99.90;;;;;;5012464;28;20454;-70
2023/07/25 12:15:46;;;;;;;4.30;1.20;;;23.60;99.90;;;;;;5012484;28;20422;-70
2023/07/25 12:18:31;;;;;;;1.13;1.03;;;22.60;99.90;;;;;;5002705;28;20459;-70
2023/07/25 12:20:59;;;;;;;1.20;1.10;;;21.70;99.90;;;;;;5012637;28;20428;-70
2023/07/25 12:23:30;;;;;;;4.53;2.30;;;21.50;99.90;;;;;;5012215;28;20961;-70
2023/07/25 12:25:56;;;;;;;4.40;2.33;;;21.40;99.90;;;;;;5012234;28;20501;-69
2023/07/25 12:28:23;;;;;;;2.77;1.90;;;21.50;99.90;;;;;;5012176;28;20426;-69
2023/07/25 12:30:48;;;;;;;2.73;2.20;;;21.00;99.90;;;;;;5005300;28;20435;-70
2023/07/25 12:33:14;;;;;;;2.20;1.83;;;20.80;99.90;;;;;;5003546;28;20448;-69
2023/07/25 12:35:39;;;;;;;1.90;1.80;;;20.50;99.90;;;;;;5001381;28;20180;-70
2023/07/25 12:38:05;;;;;;;2.43;2.00;;;20.80;99.90;;;;;;5010511;28;20170;-70
2023/07/25 12:40:31;;;;;;;1.80;1.30;;;22.10;99.90;;;;;;5011971;28;20171;-70
2023/07/25 12:42:56;;;;;;;4.07;2.30;;;23.10;99.90;;;;;;5012052;28;20174;-70